Time;durP1;ratioP1;P1;durP2;ratioP2;P2;SDS_P1;SDS_P2;PMS_P1;PMS_P2;Temp;Humidity;BMP_temperature;BMP_pressure;BME280_temperature;BME280_humidity;BME280_pressure;Samples;Min_cycle;Max_cycle;Signal;HPM_P1;HPM_P2
2023/12/11 00:02:07;;;;;;;25.58;6.20;;;;;;;18.53;64.09;99811.47;5068677;28;20032;-35
2023/12/11 00:04:32;;;;;;;27.58;6.57;;;;;;;18.53;64.50;99816.16;5075097;28;20050;-35
2023/12/11 00:06:58;;;;;;;28.35;6.68;;;;;;;18.50;64.29;99809.34;5087537;28;20428;-35
2023/12/11 00:09:23;;;;;;;26.85;7.07;;;;;;;18.50;64.39;99808.53;5073906;28;20047;-36
2023/12/11 00:11:49;;;;;;;28.35;6.97;;;;;;;18.49;64.58;99806.91;5078636;28;20036;-36
2023/12/11 00:14:14;;;;;;;36.30;7.80;;;;;;;18.49;64.70;99804.16;5079366;28;20042;-35
2023/12/11 00:16:40;;;;;;;31.27;7.47;;;;;;;18.49;64.60;99798.66;5083720;28;20032;-36
2023/12/11 00:19:05;;;;;;;28.40;6.88;;;;;;;18.48;64.56;99797.03;5080311;28;20082;-36
2023/12/11 00:21:30;;;;;;;28.27;7.07;;;;;;;18.49;64.86;99798.66;5079809;28;20052;-36
2023/12/11 00:23:56;;;;;;;31.58;7.03;;;;;;;18.47;64.65;99800.91;5078081;28;20041;-36
2023/12/11 00:26:22;;;;;;;30.52;6.60;;;;;;;18.46;64.78;99794.63;5071070;28;20040;-35
2023/12/11 00:28:47;;;;;;;25.83;6.63;;;;;;;18.46;65.08;99794.63;5081805;28;20392;-37
2023/12/11 00:31:13;;;;;;;26.77;6.13;;;;;;;18.46;65.06;99794.63;5087103;28;20438;-36
2023/12/11 00:33:38;;;;;;;26.42;6.53;;;;;;;18.45;65.08;99792.97;5075948;28;20083;-36
2023/12/11 00:36:04;;;;;;;28.65;7.53;;;;;;;18.45;65.24;99792.97;5085146;27;20031;-37
2023/12/11 00:38:30;;;;;;;23.13;6.53;;;;;;;18.44;65.01;99786.69;5076897;28;20035;-35
2023/12/11 00:40:55;;;;;;;26.58;6.45;;;;;;;18.43;65.28;99782.31;5079120;28;20016;-35
2023/12/11 00:43:20;;;;;;;29.70;6.15;;;;;;;18.44;65.09;99783.13;5074729;28;20031;-36
2023/12/11 00:45:46;;;;;;;32.38;7.03;;;;;;;18.42;65.14;99777.16;5082386;28;20531;-37
2023/12/11 00:48:11;;;;;;;26.00;6.15;;;;;;;18.41;65.29;99767.28;5054153;28;20016;-35
2023/12/11 00:50:37;;;;;;;26.42;6.53;;;;;;;18.40;65.57;99774.69;5063036;28;20036;-35
2023/12/11 00:53:02;;;;;;;27.48;6.43;;;;;;;18.40;65.36;99774.69;5076857;28;20023;-36
2023/12/11 00:55:28;;;;;;;29.35;6.57;;;;;;;18.40;65.67;99762.91;5076306;28;20043;-36
2023/12/11 00:57:53;;;;;;;26.65;6.50;;;;;;;18.39;65.54;99772.25;5081788;28;20040;-36
2023/12/11 01:00:19;;;;;;;30.35;6.70;;;;;;;18.35;65.52;99772.06;5100977;28;20028;-37
2023/12/11 01:02:45;;;;;;;29.02;6.82;;;;;;;18.32;65.88;99758.97;5079471;28;20032;-36
2023/12/11 01:05:10;;;;;;;31.10;6.90;;;;;;;18.35;65.76;99765.75;5076398;28;20040;-35
2023/12/11 01:07:36;;;;;;;32.00;6.82;;;;;;;18.35;65.79;99757.53;5080267;28;20107;-35
2023/12/11 01:10:02;;;;;;;28.85;7.35;;;;;;;18.34;66.07;99764.13;5071419;28;20028;-35
2023/12/11 01:12:27;;;;;;;22.23;6.15;;;;;;;18.33;65.92;99754.28;5078303;28;20229;-35
2023/12/11 01:14:53;;;;;;;30.45;6.25;;;;;;;18.32;66.02;99752.66;5083450;28;20039;-37
2023/12/11 01:17:18;;;;;;;29.90;7.20;;;;;;;18.33;66.40;99735.06;5080809;28;20051;-37
2023/12/11 01:19:44;;;;;;;31.35;7.72;;;;;;;18.30;66.31;99741.97;5062539;28;20055;-36
2023/12/11 01:22:09;;;;;;;28.98;6.20;;;;;;;18.30;66.30;99754.91;5079825;28;20035;-35
2023/12/11 01:24:34;;;;;;;34.00;7.60;;;;;;;18.28;66.33;99735.97;5080076;28;20118;-34
2023/12/11 01:27:00;;;;;;;27.70;6.82;;;;;;;18.26;66.30;99736.28;5076114;28;20398;-36
2023/12/11 01:29:25;;;;;;;31.00;6.95;;;;;;;18.27;66.50;99731.59;5071978;28;20043;-37
2023/12/11 01:31:51;;;;;;;29.35;6.75;;;;;;;18.26;66.35;99736.28;5074012;28;20032;-36
2023/12/11 01:34:16;;;;;;;29.85;6.43;;;;;;;18.25;66.28;99720.16;5076302;28;20260;-37
2023/12/11 01:36:42;;;;;;;28.42;6.43;;;;;;;18.25;66.34;99731.94;5077282;28;20110;-37
2023/12/11 01:39:08;;;;;;;25.20;5.90;;;;;;;18.25;66.42;99720.16;5072095;28;20059;-36
2023/12/11 01:41:33;;;;;;;28.13;6.53;;;;;;;18.23;66.34;99714.97;5092736;28;20032;-36
2023/12/11 01:43:58;;;;;;;27.10;6.35;;;;;;;18.23;66.28;99709.50;5075603;28;20020;-36
2023/12/11 01:46:24;;;;;;;27.38;6.07;;;;;;;18.22;66.43;99713.34;5083723;28;20021;-37
2023/12/11 01:48:51;;;;;;;29.00;6.63;;;;;;;18.21;66.45;99706.25;5074587;28;20032;-35
2023/12/11 01:51:17;;;;;;;29.98;6.13;;;;;;;18.22;66.71;99712.53;5084111;28;20032;-36
2023/12/11 01:53:44;;;;;;;24.30;6.28;;;;;;;18.21;66.63;99706.25;5073179;28;20035;-36
2023/12/11 01:56:09;;;;;;;22.08;5.90;;;;;;;18.20;66.76;99701.06;5068450;28;20553;-36
2023/12/11 01:58:35;;;;;;;24.05;6.10;;;;;;;18.18;66.81;99703.28;5073683;28;20043;-36
2023/12/11 02:01:01;;;;;;;24.65;5.70;;;;;;;18.18;66.75;99701.34;5091608;28;20036;-36
2023/12/11 02:03:27;;;;;;;27.30;7.47;;;;;;;18.19;66.89;99696.69;5073734;28;20029;-35
2023/12/11 02:05:52;;;;;;;25.55;6.57;;;;;;;18.17;66.94;99704.41;5081908;28;20039;-34
2023/12/11 02:08:20;;;;;;;26.83;6.20;;;;;;;18.15;67.19;99688.25;5081458;28;20224;-36
2023/12/11 02:10:46;;;;;;;29.95;6.57;;;;;;;18.16;67.07;99694.53;5064158;28;20135;-36
2023/12/11 02:13:11;;;;;;;23.48;6.53;;;;;;;18.16;67.16;99695.38;5077091;28;20533;-36
2023/12/11 02:15:41;;;;;;;28.50;6.57;;;;;;;18.15;67.08;99687.44;5092340;28;20086;-35
2023/12/11 02:18:08;;;;;;;24.25;5.60;;;;;;;18.18;66.98;99689.59;5078778;28;20190;-35
2023/12/11 02:20:34;;;;;;;25.08;6.05;;;;;;;18.15;67.08;99682.78;5067232;28;20034;-36
2023/12/11 02:23:03;;;;;;;29.42;5.70;;;;;;;18.16;66.97;99680.84;5070991;28;20028;-37
2023/12/11 02:25:30;;;;;;;24.42;6.72;;;;;;;18.14;66.94;99683.09;5059797;28;20466;-36
2023/12/11 02:27:57;;;;;;;33.30;7.18;;;;;;;18.13;67.25;99671.28;5075163;28;20433;-37
2023/12/11 02:30:22;;;;;;;30.25;7.28;;;;;;;18.11;67.15;99673.53;5068810;28;20111;-35
2023/12/11 02:32:51;;;;;;;23.77;6.05;;;;;;;18.10;67.25;99667.25;5068101;28;20119;-35
2023/12/11 02:35:16;;;;;;;29.42;6.22;;;;;;;18.08;67.23;99672.22;5069603;28;20036;-35
2023/12/11 02:37:41;;;;;;;30.38;6.50;;;;;;;18.08;67.26;99661.25;5060255;28;20125;-35
2023/12/11 02:40:08;;;;;;;27.02;5.90;;;;;;;18.08;67.21;99668.66;5079998;28;20073;-37
2023/12/11 02:42:33;;;;;;;28.40;6.90;;;;;;;18.09;67.38;99665.59;5082100;28;20027;-35
2023/12/11 02:44:58;;;;;;;26.25;6.20;;;;;;;18.08;67.39;99663.19;5079963;28;20181;-36
2023/12/11 02:47:24;;;;;;;33.67;6.25;;;;;;;18.08;67.10;99658.50;5064976;28;20038;-35
2023/12/11 02:49:49;;;;;;;28.45;6.88;;;;;;;18.08;67.05;99654.94;5091850;28;20132;-37
2023/12/11 02:52:14;;;;;;;28.10;6.82;;;;;;;18.07;67.15;99648.63;5058452;28;20039;-35
2023/12/11 02:54:40;;;;;;;32.17;6.57;;;;;;;18.06;67.25;99648.97;5076434;28;20047;-37
2023/12/11 02:57:05;;;;;;;30.33;6.95;;;;;;;18.05;67.25;99637.19;5076438;28;20500;-35
2023/12/11 02:59:31;;;;;;;26.00;6.70;;;;;;;18.03;67.16;99646.84;5061697;28;20104;-37
2023/12/11 03:01:56;;;;;;;28.67;6.78;;;;;;;18.02;67.42;99635.03;5077394;28;20080;-35
2023/12/11 03:04:21;;;;;;;25.55;5.70;;;;;;;18.02;67.30;99637.00;5077496;28;20441;-36
2023/12/11 03:06:47;;;;;;;31.08;5.95;;;;;;;18.02;67.38;99639.72;5064907;28;20027;-35
2023/12/11 03:09:12;;;;;;;28.38;6.32;;;;;;;18.01;67.49;99630.69;5081935;28;20420;-37
2023/12/11 03:11:38;;;;;;;25.63;6.18;;;;;;;18.00;67.30;99615.38;5084951;28;20073;-34
2023/12/11 03:14:03;;;;;;;27.17;5.70;;;;;;;17.99;67.27;99630.19;5072241;28;20024;-35
2023/12/11 03:16:28;;;;;;;24.48;6.28;;;;;;;18.00;67.36;99628.25;5078307;28;20073;-37
2023/12/11 03:18:54;;;;;;;26.40;6.75;;;;;;;17.99;67.47;99615.66;5074157;28;20028;-35
2023/12/11 03:21:19;;;;;;;24.90;5.88;;;;;;;17.99;67.53;99624.72;5080541;28;20027;-37
2023/12/11 03:23:45;;;;;;;27.02;6.60;;;;;;;18.00;67.82;99603.56;5072223;28;20031;-35
2023/12/11 03:26:10;;;;;;;31.90;6.93;;;;;;;17.99;67.77;99600.03;5079742;28;20039;-35
2023/12/11 03:28:35;;;;;;;23.92;5.90;;;;;;;17.99;67.90;99601.94;5071713;28;20092;-35
2023/12/11 03:31:03;;;;;;;26.42;6.43;;;;;;;17.99;68.08;99604.69;5077128;28;20032;-36
2023/12/11 03:33:29;;;;;;;24.65;5.70;;;;;;;17.99;68.05;99623.88;5064495;28;20591;-36
2023/12/11 03:35:54;;;;;;;24.85;5.82;;;;;;;17.99;67.93;99607.44;5074319;28;20153;-35
2023/12/11 03:38:19;;;;;;;26.98;6.43;;;;;;;17.99;67.99;99596.47;5074566;28;20036;-36
2023/12/11 03:40:45;;;;;;;22.58;5.75;;;;;;;17.98;68.11;99603.88;5078757;28;20028;-36
2023/12/11 03:43:11;;;;;;;22.98;5.60;;;;;;;17.96;68.21;99601.47;5082960;28;20020;-35
2023/12/11 03:45:36;;;;;;;26.95;5.97;;;;;;;17.95;67.93;99599.84;5076565;28;20023;-37
2023/12/11 03:48:02;;;;;;;23.70;5.90;;;;;;;17.95;68.12;99599.84;5080614;28;20032;-35
2023/12/11 03:50:27;;;;;;;23.70;5.90;;;;;;;17.95;68.29;99594.34;5073809;28;20031;-34
2023/12/11 03:52:53;;;;;;;25.75;5.82;;;;;;;17.96;68.31;99600.63;5086324;28;20032;-36
2023/12/11 03:55:18;;;;;;;27.25;6.25;;;;;;;17.94;68.54;99589.97;5080541;28;20105;-34
2023/12/11 03:57:43;;;;;;;26.33;6.30;;;;;;;17.93;68.34;99582.03;5058566;28;20087;-35
2023/12/11 04:00:09;;;;;;;26.65;6.93;;;;;;;17.91;68.41;99600.72;5098425;28;20062;-36
2023/12/11 04:02:35;;;;;;;27.10;6.43;;;;;;;17.90;68.33;99596.34;5082791;28;20039;-36
2023/12/11 04:05:00;;;;;;;27.67;6.63;;;;;;;17.88;68.54;99599.41;5082799;28;20024;-36
2023/12/11 04:07:25;;;;;;;27.85;6.38;;;;;;;17.87;68.50;99577.78;5079082;28;20510;-37
2023/12/11 04:09:51;;;;;;;23.73;6.20;;;;;;;17.85;68.57;99583.56;5080711;28;20039;-36
2023/12/11 04:12:16;;;;;;;27.67;6.28;;;;;;;17.86;68.67;99589.88;5083791;28;20058;-36
2023/12/11 04:14:42;;;;;;;29.52;6.05;;;;;;;17.85;68.62;99586.28;5078848;28;20080;-37
2023/12/11 04:17:07;;;;;;;31.05;6.72;;;;;;;17.84;68.64;99584.69;5077716;28;20559;-37
2023/12/11 04:19:32;;;;;;;28.73;6.68;;;;;;;17.82;68.33;99578.69;5084840;28;20158;-37
2023/12/11 04:21:58;;;;;;;22.98;5.72;;;;;;;17.82;68.51;99597.88;5064808;28;20028;-37
2023/12/11 04:24:23;;;;;;;19.83;5.72;;;;;;;17.80;68.54;99583.66;5085680;28;20052;-36
2023/12/11 04:26:49;;;;;;;24.77;6.60;;;;;;;17.80;68.35;99579.00;5066046;28;20531;-35
2023/12/11 04:29:14;;;;;;;26.00;5.88;;;;;;;17.81;68.30;99588.84;5082525;28;20111;-35
2023/12/11 04:31:40;;;;;;;26.20;5.47;;;;;;;17.82;68.24;99570.47;5075359;28;20459;-35
2023/12/11 04:34:05;;;;;;;28.90;5.65;;;;;;;17.80;68.46;99565.31;5080231;28;20473;-35
2023/12/11 04:36:30;;;;;;;27.73;6.40;;;;;;;17.82;68.29;99559.50;5076398;28;20027;-37
2023/12/11 04:38:56;;;;;;;27.13;6.15;;;;;;;17.83;68.50;99563.06;5083540;28;20309;-37
2023/12/11 04:41:21;;;;;;;22.25;5.72;;;;;;;17.81;68.44;99557.88;5077554;28;20038;-37
2023/12/11 04:43:46;;;;;;;26.38;5.85;;;;;;;17.79;68.37;99552.72;5084703;28;20028;-35
2023/12/11 04:46:12;;;;;;;24.13;6.25;;;;;;;17.78;68.51;99551.09;5073791;28;20036;-34
2023/12/11 04:48:37;;;;;;;26.70;5.47;;;;;;;17.78;68.69;99545.59;5080093;28;20496;-36
2023/12/11 04:51:04;;;;;;;30.98;6.30;;;;;;;17.79;68.60;99554.63;5073518;28;20632;-35
2023/12/11 04:53:29;;;;;;;25.63;5.65;;;;;;;17.78;68.54;99553.00;5084308;28;20062;-35
2023/12/11 04:55:54;;;;;;;25.23;5.63;;;;;;;17.77;68.74;99543.19;5082207;28;20150;-35
2023/12/11 04:58:20;;;;;;;25.13;6.72;;;;;;;17.76;68.63;99547.84;5080200;28;20060;-35
2023/12/11 05:00:45;;;;;;;26.92;6.53;;;;;;;17.76;68.86;99556.06;5077503;28;20501;-35
2023/12/11 05:03:11;;;;;;;25.60;5.80;;;;;;;17.73;68.80;99548.47;5061443;28;20020;-35
2023/12/11 05:05:36;;;;;;;19.20;5.40;;;;;;;17.72;68.81;99546.84;5082176;28;20024;-35
2023/12/11 05:08:04;;;;;;;22.70;6.28;;;;;;;17.74;68.92;99541.03;5083948;28;20111;-41
2023/12/11 05:10:30;;;;;;;22.60;5.57;;;;;;;17.73;68.80;99550.38;5079584;28;20016;-37
2023/12/11 05:12:55;;;;;;;20.25;4.97;;;;;;;17.72;68.75;99541.34;5080946;28;20038;-35
2023/12/11 05:15:20;;;;;;;21.20;4.57;;;;;;;17.70;68.90;99537.31;5075853;28;20024;-35
2023/12/11 05:17:46;;;;;;;19.40;4.90;;;;;;;17.71;68.74;99537.00;5079974;28;20362;-35
2023/12/11 05:20:16;;;;;;;20.05;5.22;;;;;;;17.74;68.85;99541.88;5078377;28;20032;-36
2023/12/11 05:22:41;;;;;;;17.98;4.78;;;;;;;17.77;68.47;99546.72;5080435;28;20024;-35
2023/12/11 05:25:07;;;;;;;18.95;5.18;;;;;;;17.82;68.65;99556.78;5081537;28;20035;-35
2023/12/11 05:27:33;;;;;;;19.38;5.75;;;;;;;17.87;68.51;99536.69;5084673;28;20024;-35
2023/12/11 05:29:58;;;;;;;17.30;4.82;;;;;;;17.92;68.39;99542.84;5076510;28;20407;-37
2023/12/11 05:32:24;;;;;;;16.85;4.60;;;;;;;17.98;68.46;99529.88;5052738;28;20502;-37
2023/12/11 05:34:49;;;;;;;15.88;4.60;;;;;;;18.06;68.16;99539.28;5061717;28;20028;-37
2023/12/11 05:37:14;;;;;;;18.48;4.63;;;;;;;18.11;68.42;99519.97;5073911;28;20039;-37
2023/12/11 05:39:40;;;;;;;15.30;4.43;;;;;;;18.21;68.20;99532.63;5082718;28;20025;-36
2023/12/11 05:42:05;;;;;;;18.23;4.18;;;;;;;18.29;68.32;99523.69;5078545;28;20049;-35
2023/12/11 05:44:31;;;;;;;15.57;4.35;;;;;;;18.36;68.28;99526.81;5062075;28;20077;-34
2023/12/11 05:46:56;;;;;;;16.48;4.57;;;;;;;18.44;68.18;99527.97;5065339;28;20439;-34
2023/12/11 05:49:22;;;;;;;13.75;4.10;;;;;;;18.53;68.00;99536.31;5080058;28;20506;-36
2023/12/11 05:51:47;;;;;;;18.13;4.50;;;;;;;18.63;67.97;99532.50;5082787;28;20084;-37
2023/12/11 05:54:12;;;;;;;14.88;4.20;;;;;;;18.72;67.67;99523.19;5058342;28;20524;-38
2023/12/11 05:56:38;;;;;;;17.52;4.78;;;;;;;18.78;67.58;99529.34;5075192;28;20707;-37
2023/12/11 05:59:03;;;;;;;14.07;3.72;;;;;;;18.82;67.52;99532.28;5073818;28;20027;-38
2023/12/11 06:01:29;;;;;;;15.43;4.70;;;;;;;18.83;67.04;99529.22;5075009;28;20043;-37
2023/12/11 06:03:55;;;;;;;13.80;3.95;;;;;;;18.86;67.31;99538.75;5077534;28;20115;-37
2023/12/11 06:06:20;;;;;;;13.70;3.95;;;;;;;18.87;66.98;99545.88;5073335;28;20036;-38
2023/12/11 06:08:45;;;;;;;15.38;4.28;;;;;;;18.86;67.20;99550.56;5075199;28;20123;-36
2023/12/11 06:11:11;;;;;;;11.73;3.72;;;;;;;18.86;67.07;99547.81;5072671;28;20028;-36
2023/12/11 06:13:36;;;;;;;11.52;4.15;;;;;;;18.85;66.87;99545.38;5070885;28;20039;-36
2023/12/11 06:16:02;;;;;;;11.07;3.65;;;;;;;18.86;66.75;99557.97;5069830;28;20101;-36
2023/12/11 06:18:27;;;;;;;12.38;3.85;;;;;;;18.86;66.97;99564.28;5069070;28;20125;-36
2023/12/11 06:20:53;;;;;;;11.52;3.67;;;;;;;18.86;67.05;99569.78;5077763;28;20061;-37
2023/12/11 06:23:18;;;;;;;12.25;4.28;;;;;;;18.85;66.97;99584.63;5069268;28;20024;-36
2023/12/11 06:25:44;;;;;;;13.15;3.90;;;;;;;18.84;67.08;99583.00;5060340;28;20024;-36
2023/12/11 06:28:09;;;;;;;13.13;3.88;;;;;;;18.84;66.83;99599.47;5078022;28;20107;-38
2023/12/11 06:30:35;;;;;;;10.77;3.63;;;;;;;18.84;66.93;99550.06;5080480;28;20019;-35
2023/12/11 06:33:00;;;;;;;11.98;4.00;;;;;;;18.84;66.80;99584.94;5076305;28;20116;-37
2023/12/11 06:35:25;;;;;;;14.95;4.70;;;;;;;18.80;66.73;99589.41;5074807;28;20032;-37
2023/12/11 06:37:51;;;;;;;10.57;3.38;;;;;;;18.80;66.78;99594.91;5077338;28;20043;-37
2023/12/11 06:40:17;;;;;;;12.88;3.78;;;;;;;18.79;67.06;99599.59;5078326;28;20738;-37
2023/12/11 06:42:43;;;;;;;12.05;3.70;;;;;;;18.76;66.72;99609.28;5085376;28;20036;-37
2023/12/11 06:45:10;;;;;;;12.68;3.80;;;;;;;18.75;66.89;99606.84;5069690;28;20460;-37
2023/12/11 06:47:36;;;;;;;13.63;4.00;;;;;;;18.74;66.66;99613.44;5073403;28;20042;-37
2023/12/11 06:50:01;;;;;;;10.70;3.50;;;;;;;18.74;66.94;99622.47;5075020;28;20024;-37
2023/12/11 06:52:27;;;;;;;11.35;3.50;;;;;;;18.73;66.70;99615.38;5055486;28;20405;-35
2023/12/11 06:54:53;;;;;;;8.57;3.10;;;;;;;18.72;66.83;99637.63;5073431;28;20024;-37
2023/12/11 06:57:18;;;;;;;12.82;3.85;;;;;;;18.69;66.97;99630.84;5076935;28;20123;-35
2023/12/11 06:59:44;;;;;;;12.75;3.72;;;;;;;18.69;66.91;99641.81;5078247;28;20139;-37
2023/12/11 07:02:09;;;;;;;11.32;4.10;;;;;;;18.69;66.90;99635.53;5078046;28;20410;-36
2023/12/11 07:04:35;;;;;;;9.93;3.28;;;;;;;18.68;66.88;99642.13;5056572;28;20098;-36
2023/12/11 07:07:00;;;;;;;9.70;3.45;;;;;;;18.67;66.88;99651.50;5051954;28;20571;-35
2023/12/11 07:09:29;;;;;;;12.25;4.05;;;;;;;18.66;67.07;99669.06;5082212;28;20032;-35
2023/12/11 07:11:55;;;;;;;11.13;3.70;;;;;;;18.64;67.01;99685.03;5077679;28;20077;-35
2023/12/11 07:14:20;;;;;;;12.32;3.38;;;;;;;18.63;67.18;99676.00;5085944;28;20548;-35
2023/12/11 07:16:45;;;;;;;10.82;3.42;;;;;;;18.63;66.98;99676.00;5063715;28;20489;-36
2023/12/11 07:19:11;;;;;;;9.82;3.20;;;;;;;18.63;67.23;99697.94;5081304;28;20024;-35
2023/12/11 07:21:36;;;;;;;11.93;3.05;;;;;;;18.62;67.04;99688.09;5080745;28;20502;-37
2023/12/11 07:24:02;;;;;;;9.05;3.25;;;;;;;18.63;66.47;99705.38;5084276;28;20028;-37
2023/12/11 07:26:28;;;;;;;8.88;3.13;;;;;;;18.64;66.88;99709.72;5085927;28;20077;-37
2023/12/11 07:28:54;;;;;;;8.95;3.20;;;;;;;18.64;66.94;99710.56;5079739;28;20085;-36
2023/12/11 07:31:20;;;;;;;12.35;3.25;;;;;;;18.65;66.82;99727.81;5078123;28;20082;-37
2023/12/11 07:33:45;;;;;;;8.98;3.08;;;;;;;18.65;66.69;99714.94;5075733;28;20020;-37
2023/12/11 07:36:12;;;;;;;9.65;2.88;;;;;;;18.68;67.05;99724.47;5078468;28;20094;-37
2023/12/11 07:38:37;;;;;;;10.60;2.80;;;;;;;18.72;66.81;99736.44;5080343;28;20384;-38
2023/12/11 07:41:03;;;;;;;8.73;3.20;;;;;;;18.71;66.68;99746.63;5079853;28;20032;-36
2023/12/11 07:43:28;;;;;;;11.73;3.08;;;;;;;18.72;66.90;99753.75;5082959;28;20035;-37
2023/12/11 07:45:54;;;;;;;9.35;2.88;;;;;;;18.73;66.91;99769.06;5080786;28;20591;-37
2023/12/11 07:48:20;;;;;;;7.60;2.53;;;;;;;18.73;66.76;99766.31;5075627;28;20192;-36
2023/12/11 07:50:45;;;;;;;9.40;2.97;;;;;;;18.73;66.94;99777.31;5072016;28;20047;-36
2023/12/11 07:53:10;;;;;;;7.40;2.70;;;;;;;18.75;66.83;99791.53;5071061;28;20059;-37
2023/12/11 07:55:36;;;;;;;8.13;2.72;;;;;;;18.75;67.02;99782.50;5073583;28;20016;-37
2023/12/11 07:58:03;;;;;;;10.05;2.92;;;;;;;18.75;66.75;99799.78;5074953;28;20075;-37
2023/12/11 08:00:28;;;;;;;11.82;2.70;;;;;;;18.76;66.93;99811.56;5077398;28;20028;-36
2023/12/11 08:02:54;;;;;;;7.97;2.63;;;;;;;18.75;66.64;99819.00;5075784;28;20101;-36
2023/12/11 08:05:20;;;;;;;8.50;2.45;;;;;;;18.76;66.60;99819.78;5082533;28;20028;-36
2023/12/11 08:07:45;;;;;;;7.28;2.75;;;;;;;18.75;66.54;99829.16;5083198;28;20404;-35
2023/12/11 08:10:11;;;;;;;7.22;2.65;;;;;;;18.75;66.51;99835.47;5044339;28;20044;-35
2023/12/11 08:12:36;;;;;;;8.60;2.92;;;;;;;18.74;66.73;99825.59;5080402;28;20480;-35
2023/12/11 08:15:03;;;;;;;7.15;2.45;;;;;;;18.74;66.47;99844.81;5077039;28;20077;-35
2023/12/11 08:17:28;;;;;;;8.23;2.53;;;;;;;18.74;66.66;99838.50;5055898;28;20025;-37
2023/12/11 08:19:54;;;;;;;6.68;2.80;;;;;;;18.74;66.33;99855.78;5070953;28;20024;-36
2023/12/11 08:22:19;;;;;;;9.05;2.90;;;;;;;18.72;66.45;99871.78;5086216;28;20130;-36
2023/12/11 08:24:45;;;;;;;7.32;2.40;;;;;;;18.72;66.67;99873.69;5083096;28;20024;-36
2023/12/11 08:27:10;;;;;;;20.50;3.40;;;;;;;18.71;66.74;99878.38;5085103;28;20029;-37
2023/12/11 08:29:37;;;;;;;14.80;3.10;;;;;;;18.73;67.15;99878.84;5075963;28;20073;-35
2023/12/11 08:32:03;;;;;;;16.00;2.90;;;;;;;18.78;67.58;99883.44;5080133;28;20435;-35
2023/12/11 08:34:29;;;;;;;12.40;2.80;;;;;;;18.81;67.74;99901.22;5056854;28;20087;-35
2023/12/11 08:36:55;;;;;;;10.70;2.97;;;;;;;18.85;67.81;99905.00;5056027;28;20153;-39
2023/12/11 08:39:21;;;;;;;9.55;2.85;;;;;;;18.88;67.88;99910.69;5083096;28;20119;-37
2023/12/11 08:41:48;;;;;;;22.08;3.60;;;;;;;18.92;67.97;99919.97;5076217;28;20590;-34
2023/12/11 08:44:13;;;;;;;12.90;2.92;;;;;;;18.96;67.82;99919.34;5078929;28;20024;-35
2023/12/11 08:46:39;;;;;;;9.18;3.17;;;;;;;18.99;67.71;99925.03;5080541;28;20687;-39
2023/12/11 08:49:04;;;;;;;9.55;2.80;;;;;;;19.04;67.86;99933.22;5063212;28;20025;-37
2023/12/11 08:51:30;;;;;;;9.60;3.13;;;;;;;19.07;67.67;99923.53;5076972;28;20103;-38
2023/12/11 08:53:55;;;;;;;9.05;2.78;;;;;;;19.10;67.67;99946.81;5081732;28;20521;-38
2023/12/11 08:56:20;;;;;;;8.20;2.80;;;;;;;19.14;67.20;99939.59;5061449;28;20032;-37
2023/12/11 08:58:49;;;;;;;10.32;2.70;;;;;;;19.15;67.44;99958.50;5082222;28;20052;-38
2023/12/11 09:01:14;;;;;;;13.80;2.92;;;;;;;19.17;67.36;99964.50;5080734;28;20523;-35
2023/12/11 09:03:40;;;;;;;10.00;2.90;;;;;;;19.20;67.19;99974.91;5060949;28;20025;-35
2023/12/11 09:06:05;;;;;;;11.27;3.00;;;;;;;19.20;67.21;99983.16;5079023;28;20504;-35
2023/12/11 09:08:30;;;;;;;13.07;3.00;;;;;;;19.22;66.94;99988.31;5077078;28;20047;-34
2023/12/11 09:10:56;;;;;;;16.02;3.33;;;;;;;19.23;66.91;99989.97;5079028;28;20504;-36
2023/12/11 09:13:22;;;;;;;11.70;3.45;;;;;;;19.26;66.89;99994.03;5073795;28;20769;-34
2023/12/11 09:15:47;;;;;;;13.57;3.53;;;;;;;19.27;67.02;100009.41;5058579;28;20032;-34
2023/12/11 09:18:13;;;;;;;23.33;3.53;;;;;;;19.28;66.90;100019.28;5061349;28;20115;-36
2023/12/11 09:20:38;;;;;;;13.13;3.45;;;;;;;19.29;66.98;100018.13;5082543;28;20032;-32
2023/12/11 09:23:04;;;;;;;13.68;3.58;;;;;;;19.29;66.81;100015.38;5061599;28;20016;-36
2023/12/11 09:25:29;;;;;;;13.05;3.80;;;;;;;19.30;66.78;100028.81;5079223;28;20115;-40
2023/12/11 09:27:55;;;;;;;15.30;3.15;;;;;;;19.31;66.85;100037.88;5081696;28;20016;-35
2023/12/11 09:30:21;;;;;;;16.10;4.25;;;;;;;19.31;66.76;100035.13;5079576;28;20768;-34
2023/12/11 09:32:46;;;;;;;13.45;3.70;;;;;;;19.32;66.71;100039.50;5080060;28;20060;-34
2023/12/11 09:35:13;;;;;;;19.33;4.80;;;;;;;19.32;66.69;100040.31;5078239;28;20421;-43
2023/12/11 09:37:39;;;;;;;24.60;5.80;;;;;;;19.32;66.64;100051.28;5078166;28;20078;-41
2023/12/11 09:40:06;;;;;;;23.77;6.18;;;;;;;19.33;66.52;100058.44;5082335;28;20020;-34
2023/12/11 09:42:33;;;;;;;25.48;5.75;;;;;;;19.33;66.70;100066.66;5074498;28;20043;-33
2023/12/11 09:44:59;;;;;;;28.08;7.25;;;;;;;19.34;66.58;100071.03;5071825;28;20085;-40
2023/12/11 09:47:31;;;;;;;27.33;7.18;;;;;;;19.34;66.59;100087.53;5084510;28;20403;-36
2023/12/11 09:49:57;;;;;;;34.35;7.72;;;;;;;19.37;66.48;100069.63;5068230;28;20038;-36
2023/12/11 09:52:23;;;;;;;33.38;8.45;;;;;;;19.38;65.86;100099.53;5075607;28;20032;-40
2023/12/11 09:54:48;;;;;;;32.05;8.48;;;;;;;19.42;65.74;100093.44;5058986;28;20476;-43
2023/12/11 09:57:15;;;;;;;29.48;7.97;;;;;;;19.46;65.87;100110.94;5067470;28;20087;-40
2023/12/11 09:59:42;;;;;;;33.45;7.15;;;;;;;19.49;65.62;100113.91;5092617;28;20028;-44
2023/12/11 10:02:14;;;;;;;30.88;7.07;;;;;;;19.53;65.35;100123.19;5077642;28;20497;-41
2023/12/11 10:05:03;;;;;;;29.23;7.90;;;;;;;19.59;65.47;100125.81;5059958;28;20032;-43
2023/12/11 10:07:30;;;;;;;23.27;7.35;;;;;;;19.64;65.43;100128.47;5077405;28;20055;-44
2023/12/11 10:09:56;;;;;;;25.00;7.68;;;;;;;19.68;65.26;100143.22;5076858;28;20452;-44
2023/12/11 10:12:21;;;;;;;29.00;7.55;;;;;;;19.73;65.20;100141.19;5080211;28;20111;-43
2023/12/11 10:15:03;;;;;;;25.27;6.75;;;;;;;19.79;65.44;100152.91;5081048;28;20055;-43
2023/12/11 10:17:29;;;;;;;24.50;6.45;;;;;;;19.84;65.17;100163.00;5054436;28;20036;-44
2023/12/11 10:19:55;;;;;;;19.17;6.20;;;;;;;19.86;64.99;100155.28;5075036;28;20120;-43
2023/12/11 10:22:32;;;;;;;70.03;8.73;;;;;;;19.90;64.84;100152.72;5076040;28;20477;-42
2023/12/11 10:24:58;;;;;;;25.33;6.18;;;;;;;19.92;64.98;100175.25;5071694;28;20039;-42
2023/12/11 10:27:25;;;;;;;20.40;6.18;;;;;;;19.91;64.91;100179.91;5077771;28;20032;-44
2023/12/11 10:30:14;;;;;;;22.85;5.90;;;;;;;19.90;64.66;100182.97;5075360;28;20036;-44
2023/12/11 10:32:40;;;;;;;16.85;5.88;;;;;;;19.89;64.54;100187.69;5083466;28;20391;-45
2023/12/11 10:35:06;;;;;;;21.00;5.93;;;;;;;19.85;64.58;100175.63;5077759;28;20117;-44
2023/12/11 10:37:32;;;;;;;19.17;5.85;;;;;;;19.84;64.57;100182.25;5069496;28;20101;-43
2023/12/11 10:39:58;;;;;;;19.40;5.50;;;;;;;19.81;64.52;100180.09;5081980;28;20383;-41
2023/12/11 10:42:24;;;;;;;25.60;6.35;;;;;;;19.79;65.26;100194.16;5064896;28;20026;-42
2023/12/11 10:44:50;;;;;;;22.60;6.15;;;;;;;19.78;65.96;100188.94;5086144;28;20031;-41
2023/12/11 10:47:16;;;;;;;26.02;6.35;;;;;;;19.77;66.79;100199.13;5067178;28;20982;-43
2023/12/11 10:49:42;;;;;;;22.48;5.75;;;;;;;19.78;67.00;100191.69;5102584;28;20140;-43
2023/12/11 10:52:07;;;;;;;21.00;5.82;;;;;;;19.78;67.13;100205.44;5081615;28;20056;-45
2023/12/11 10:54:35;;;;;;;22.33;5.72;;;;;;;19.75;67.50;100219.81;5078223;28;20142;-43
2023/12/11 10:57:03;;;;;;;17.58;5.13;;;;;;;19.75;67.59;100198.63;5068533;28;20098;-43
2023/12/11 10:59:31;;;;;;;28.98;6.18;;;;;;;19.75;69.13;100209.63;5086152;28;20500;-42
2023/12/11 11:01:57;;;;;;;27.02;6.40;;;;;;;19.75;68.85;100208.81;5081536;28;20024;-44
2023/12/11 11:04:23;;;;;;;19.90;5.68;;;;;;;19.75;68.56;100217.88;5097513;27;20119;-44
2023/12/11 11:07:24;;;;;;;17.10;5.50;;;;;;;19.75;68.42;100214.31;5090364;28;20110;-44
2023/12/11 11:10:14;;;;;;;13.25;4.70;;;;;;;19.76;67.81;100215.94;5037787;28;20043;-45
2023/12/11 11:12:57;;;;;;;17.75;4.55;;;;;;;19.74;68.02;100221.72;5078990;28;20028;-44
2023/12/11 11:15:23;;;;;;;14.35;4.82;;;;;;;19.73;68.03;100231.13;5078004;28;20079;-45
2023/12/11 11:17:59;;;;;;;14.10;4.47;;;;;;;19.72;68.21;100235.78;5080215;28;20508;-45
2023/12/11 11:20:26;;;;;;;18.98;4.40;;;;;;;19.69;67.92;100241.91;5081878;28;20563;-43